Time;durP1;ratioP1;P1;durP2;ratioP2;P2;SDS_P1;SDS_P2;PMS_P1;PMS_P2;Temp;Humidity;BMP_temperature;BMP_pressure;BME280_temperature;BME280_humidity;BME280_pressure;Samples;Min_cycle;Max_cycle;Signal;HPM_P1;HPM_P2
2022/11/09 00:02:22;;;;;;;6.38;3.40;;;12.30;99.90;;;;;;6167012;23;20027;-86
2022/11/09 00:04:48;;;;;;;7.88;3.97;;;12.40;99.90;;;;;;6194059;23;20020;-88
2022/11/09 00:07:13;;;;;;;8.07;3.60;;;12.30;99.90;;;;;;6167787;23;20035;-86
2022/11/09 00:09:39;;;;;;;6.05;3.45;;;12.40;99.90;;;;;;6169123;23;20020;-88
2022/11/09 00:12:06;;;;;;;7.53;3.70;;;12.30;99.90;;;;;;6168699;23;20024;-88
2022/11/09 00:14:33;;;;;;;5.10;3.10;;;12.30;99.90;;;;;;6170072;23;20439;-87
2022/11/09 00:17:01;;;;;;;5.90;3.08;;;12.30;99.90;;;;;;6167870;23;20318;-87
2022/11/09 00:19:27;;;;;;;4.78;2.78;;;12.30;99.90;;;;;;6170044;23;20453;-87
2022/11/09 00:21:55;;;;;;;5.47;2.97;;;12.40;99.90;;;;;;6169383;23;20036;-87
2022/11/09 00:24:21;;;;;;;3.97;2.70;;;12.30;99.90;;;;;;6168395;23;20327;-87
2022/11/09 00:26:46;;;;;;;7.00;3.03;;;12.20;99.90;;;;;;6169032;23;20251;-87
2022/11/09 00:29:12;;;;;;;7.40;2.72;;;12.20;99.90;;;;;;6168652;23;20013;-88
2022/11/09 00:31:38;;;;;;;3.67;2.63;;;12.20;99.90;;;;;;6193029;23;20056;-88
2022/11/09 00:34:04;;;;;;;4.63;2.75;;;12.00;99.90;;;;;;6169487;23;20378;-88
2022/11/09 00:36:29;;;;;;;5.03;2.75;;;12.00;99.90;;;;;;6169488;23;20023;-87
2022/11/09 00:38:57;;;;;;;4.95;2.90;;;11.90;99.90;;;;;;6169916;23;20013;-88
2022/11/09 00:41:24;;;;;;;5.63;2.60;;;11.80;99.90;;;;;;6194281;23;20161;-87
2022/11/09 00:43:50;;;;;;;5.43;2.78;;;11.70;99.90;;;;;;6194713;23;20020;-88
2022/11/09 00:46:16;;;;;;;4.70;2.80;;;11.80;99.90;;;;;;6169788;23;20310;-87
2022/11/09 00:48:42;;;;;;;5.97;2.90;;;11.70;99.90;;;;;;6193268;23;20118;-87
2022/11/09 00:51:08;;;;;;;5.38;3.00;;;11.70;99.90;;;;;;6169415;23;20019;-87
2022/11/09 00:53:34;;;;;;;5.15;2.95;;;11.70;99.90;;;;;;6194841;23;20036;-87
2022/11/09 00:56:04;;;;;;;4.85;2.80;;;11.60;99.90;;;;;;6168756;23;20016;-87
2022/11/09 00:58:33;;;;;;;6.93;2.85;;;11.60;99.90;;;;;;6194361;23;20063;-88
2022/11/09 01:01:14;;;;;;;6.43;3.10;;;11.50;99.90;;;;;;6193929;23;20020;-87
2022/11/09 01:03:40;;;;;;;6.80;3.58;;;11.50;99.90;;;;;;6167888;23;20024;-87
2022/11/09 01:06:07;;;;;;;8.32;3.20;;;11.60;99.90;;;;;;6195542;23;20019;-88
2022/11/09 01:08:34;;;;;;;7.18;3.40;;;11.50;99.90;;;;;;6168515;23;20020;-88
2022/11/09 01:11:05;;;;;;;6.22;3.28;;;11.50;99.90;;;;;;6169828;23;20021;-87
2022/11/09 01:13:31;;;;;;;6.80;3.38;;;11.60;99.90;;;;;;6169931;23;20081;-88
2022/11/09 01:15:57;;;;;;;9.10;4.22;;;11.70;99.90;;;;;;6170215;23;20478;-88
2022/11/09 01:18:22;;;;;;;12.82;3.60;;;11.80;99.90;;;;;;6169069;23;20438;-86
2022/11/09 01:20:52;;;;;;;7.70;3.50;;;11.90;99.90;;;;;;6170120;23;20066;-89
2022/11/09 01:23:18;;;;;;;5.28;3.22;;;11.90;99.90;;;;;;6195042;23;20058;-88
2022/11/09 01:25:44;;;;;;;9.65;4.13;;;11.70;99.90;;;;;;6171388;23;20078;-88
2022/11/09 01:28:10;;;;;;;9.00;3.67;;;11.80;99.90;;;;;;6169384;23;20381;-87
2022/11/09 01:30:38;;;;;;;8.77;3.45;;;11.90;99.90;;;;;;6170855;23;20020;-88
2022/11/09 01:33:06;;;;;;;10.77;3.40;;;11.80;99.90;;;;;;6167771;23;20023;-88
2022/11/09 01:35:33;;;;;;;8.27;3.40;;;11.70;99.90;;;;;;6170506;23;20057;-88
2022/11/09 01:37:59;;;;;;;9.07;3.47;;;11.90;99.90;;;;;;6169385;23;20023;-87
2022/11/09 01:40:27;;;;;;;6.90;3.15;;;11.80;99.90;;;;;;6196256;23;20017;-87
2022/11/09 01:42:52;;;;;;;10.02;3.35;;;11.90;99.90;;;;;;6195918;23;20021;-89
2022/11/09 01:45:18;;;;;;;7.65;3.13;;;11.70;99.90;;;;;;6171303;23;20019;-88
2022/11/09 01:47:51;;;;;;;6.28;3.05;;;11.80;99.90;;;;;;6300715;22;20017;-88
2022/11/09 01:50:23;;;;;;;8.60;3.50;;;11.90;99.90;;;;;;6196526;23;20016;-88
2022/11/09 01:52:49;;;;;;;9.82;3.28;;;12.00;99.90;;;;;;6169110;23;20087;-88
2022/11/09 01:55:20;;;;;;;7.68;3.58;;;12.00;99.90;;;;;;6146933;23;20043;-88
2022/11/09 01:58:00;;;;;;;5.70;3.05;;;11.90;99.90;;;;;;6170157;23;20016;-88
2022/11/09 02:00:27;;;;;;;7.22;3.28;;;12.20;99.90;;;;;;6145628;23;20457;-88
2022/11/09 02:03:07;;;;;;;8.80;2.95;;;12.20;99.90;;;;;;6143465;23;20027;-86
2022/11/09 02:05:35;;;;;;;9.02;2.80;;;12.20;99.90;;;;;;6145370;23;20017;-88
2022/11/09 02:08:03;;;;;;;7.10;2.90;;;12.20;99.90;;;;;;6144411;23;20472;-88
2022/11/09 02:10:38;;;;;;;7.78;3.00;;;12.10;99.90;;;;;;6145206;23;20095;-89
2022/11/09 02:13:04;;;;;;;8.13;3.20;;;12.10;99.90;;;;;;6145633;23;20069;-88
2022/11/09 02:15:31;;;;;;;6.60;2.90;;;12.00;99.90;;;;;;6146927;23;20017;-88
2022/11/09 02:17:57;;;;;;;8.25;2.72;;;12.00;99.90;;;;;;6143899;23;20563;-87
2022/11/09 02:20:24;;;;;;;11.38;3.13;;;11.90;99.90;;;;;;6144227;23;20048;-87
2022/11/09 02:22:50;;;;;;;8.20;2.90;;;11.80;99.90;;;;;;6144640;22;20182;-87
2022/11/09 02:25:16;;;;;;;10.40;3.33;;;11.70;99.90;;;;;;6145564;23;20016;-88
2022/11/09 02:27:43;;;;;;;7.05;2.50;;;11.80;99.90;;;;;;6145964;23;20048;-87
2022/11/09 02:30:10;;;;;;;7.30;3.10;;;11.80;99.90;;;;;;6146659;23;20456;-88
2022/11/09 02:32:36;;;;;;;5.93;2.88;;;11.70;99.90;;;;;;6143308;23;20035;-89
2022/11/09 02:35:02;;;;;;;11.40;3.22;;;11.70;99.90;;;;;;6147396;23;20365;-89
2022/11/09 02:37:30;;;;;;;8.98;3.08;;;11.80;99.90;;;;;;6170043;23;20099;-89
2022/11/09 02:39:57;;;;;;;6.43;3.17;;;11.70;99.90;;;;;;6145805;23;20027;-87
2022/11/09 02:42:23;;;;;;;10.52;3.13;;;11.60;99.90;;;;;;6145960;23;20028;-87
2022/11/09 02:44:56;;;;;;;8.85;2.95;;;11.60;99.90;;;;;;6146743;23;20027;-88
2022/11/09 02:47:22;;;;;;;6.72;2.80;;;11.60;99.90;;;;;;6168472;23;20465;-89
2022/11/09 02:49:49;;;;;;;11.60;2.88;;;11.70;99.90;;;;;;6144709;23;20027;-88
2022/11/09 02:52:15;;;;;;;10.57;3.35;;;11.70;99.90;;;;;;6145032;22;20073;-89
2022/11/09 02:54:40;;;;;;;9.63;2.67;;;11.60;99.90;;;;;;6164833;22;20024;-88
2022/11/09 02:57:07;;;;;;;6.05;2.70;;;11.60;99.90;;;;;;6170506;23;20025;-88
2022/11/09 02:59:34;;;;;;;8.32;2.80;;;11.70;99.90;;;;;;6173186;23;20016;-93
2022/11/09 03:02:00;;;;;;;7.68;2.83;;;11.70;99.90;;;;;;6171372;23;20016;-92
2022/11/09 03:04:26;;;;;;;7.60;3.00;;;11.60;99.90;;;;;;6172809;23;20044;-92
2022/11/09 03:06:51;;;;;;;10.63;2.97;;;11.60;99.90;;;;;;6197534;23;20028;-93
2022/11/09 03:09:18;;;;;;;9.65;2.83;;;11.70;99.90;;;;;;6172822;23;20016;-92
2022/11/09 03:11:44;;;;;;;12.20;3.20;;;11.70;99.90;;;;;;6172069;23;20016;-94
2022/11/09 03:14:13;;;;;;;8.60;2.90;;;11.60;99.90;;;;;;6172312;23;20013;-93
2022/11/09 03:16:42;;;;;;;8.88;2.78;;;11.70;99.90;;;;;;6171763;23;20020;-93
2022/11/09 03:19:07;;;;;;;13.70;3.00;;;11.60;99.90;;;;;;6172306;23;20093;-91
2022/11/09 03:21:33;;;;;;;9.48;2.55;;;11.70;99.90;;;;;;6198104;23;20111;-91
2022/11/09 03:23:59;;;;;;;7.28;2.92;;;11.70;99.90;;;;;;6173515;23;20449;-92
2022/11/09 03:26:27;;;;;;;12.93;2.90;;;11.60;99.90;;;;;;6173126;23;20020;-91
2022/11/09 03:28:53;;;;;;;7.18;2.50;;;11.60;99.90;;;;;;6172471;23;20439;-92
2022/11/09 03:31:19;;;;;;;7.85;2.63;;;11.60;99.90;;;;;;6172787;23;20024;-92
2022/11/09 03:33:45;;;;;;;8.02;2.63;;;11.70;99.90;;;;;;6171795;23;20289;-92
2022/11/09 03:36:11;;;;;;;11.57;2.78;;;11.60;99.90;;;;;;6172516;23;20330;-92
2022/11/09 03:38:36;;;;;;;12.50;3.10;;;11.60;99.90;;;;;;6173334;23;20012;-93
2022/11/09 03:41:02;;;;;;;9.93;2.67;;;11.60;99.90;;;;;;6173290;23;20009;-93
2022/11/09 03:43:29;;;;;;;8.35;3.08;;;11.50;99.90;;;;;;6173194;23;20116;-94
2022/11/09 03:45:55;;;;;;;9.95;2.80;;;11.60;99.90;;;;;;6171299;23;20024;-92
2022/11/09 03:48:21;;;;;;;9.80;2.92;;;11.60;99.90;;;;;;6171063;23;20077;-92
2022/11/09 03:50:46;;;;;;;6.22;2.28;;;11.50;99.90;;;;;;6173446;23;20016;-91
2022/11/09 03:53:12;;;;;;;13.43;3.08;;;11.50;99.90;;;;;;6171439;23;20013;-93
2022/11/09 03:55:39;;;;;;;11.60;2.80;;;11.50;99.90;;;;;;6173730;23;20073;-91
2022/11/09 03:58:06;;;;;;;9.10;2.38;;;11.50;99.90;;;;;;6171504;23;20008;-92
2022/11/09 04:00:32;;;;;;;12.95;2.50;;;11.50;99.90;;;;;;6172969;23;20012;-93
2022/11/09 04:02:58;;;;;;;8.93;2.70;;;11.40;99.90;;;;;;6169996;23;20038;-93
2022/11/09 04:05:24;;;;;;;9.75;2.65;;;11.40;99.90;;;;;;6173440;23;20017;-92
2022/11/09 04:07:52;;;;;;;10.10;2.63;;;11.50;99.90;;;;;;6172586;23;20020;-92
2022/11/09 04:10:19;;;;;;;9.48;2.70;;;11.40;99.90;;;;;;6173169;23;20016;-91
2022/11/09 04:12:45;;;;;;;9.13;3.00;;;11.30;99.90;;;;;;6172059;23;20017;-94
2022/11/09 04:15:11;;;;;;;6.10;2.25;;;11.20;99.90;;;;;;6173389;23;20017;-92
2022/11/09 04:17:37;;;;;;;13.77;3.30;;;11.30;99.90;;;;;;6171007;22;20595;-91
2022/11/09 04:20:04;;;;;;;11.10;2.60;;;11.20;99.90;;;;;;6173906;23;20105;-91
2022/11/09 04:22:29;;;;;;;8.93;2.88;;;11.20;99.90;;;;;;6172497;23;20031;-93
2022/11/09 04:24:55;;;;;;;9.00;2.38;;;11.10;99.90;;;;;;6199320;23;20013;-92
2022/11/09 04:27:21;;;;;;;11.65;3.10;;;11.10;99.90;;;;;;6172953;23;20055;-93
2022/11/09 04:29:46;;;;;;;10.45;3.03;;;11.00;99.90;;;;;;6173191;23;20008;-94
2022/11/09 04:32:12;;;;;;;11.85;2.75;;;11.10;99.90;;;;;;6171633;23;20021;-92
2022/11/09 04:34:40;;;;;;;11.30;3.13;;;11.10;99.90;;;;;;6173672;23;20016;-91
2022/11/09 04:37:09;;;;;;;10.90;3.03;;;11.10;99.90;;;;;;6173009;22;20027;-92
2022/11/09 04:39:35;;;;;;;6.78;2.58;;;11.10;99.90;;;;;;6173409;23;20028;-93
2022/11/09 04:42:01;;;;;;;9.80;2.70;;;11.30;99.90;;;;;;6172879;23;20040;-93
2022/11/09 04:44:28;;;;;;;12.38;3.05;;;11.30;99.90;;;;;;6173579;23;20349;-92
2022/11/09 04:46:53;;;;;;;10.77;3.40;;;11.30;99.90;;;;;;6171827;23;20032;-93
2022/11/09 04:49:19;;;;;;;8.57;2.72;;;11.40;99.90;;;;;;6196929;23;20046;-93
2022/11/09 04:51:45;;;;;;;13.05;3.55;;;11.40;99.90;;;;;;6172396;23;20048;-93
2022/11/09 04:54:10;;;;;;;11.70;3.00;;;11.50;99.90;;;;;;6172163;23;20473;-91
2022/11/09 04:56:36;;;;;;;7.55;2.85;;;11.50;99.90;;;;;;6172750;23;20418;-90
2022/11/09 04:59:02;;;;;;;8.35;3.22;;;11.50;99.90;;;;;;6173466;23;20020;-91
2022/11/09 05:01:28;;;;;;;11.02;3.25;;;11.60;99.90;;;;;;6172534;23;20073;-93
2022/11/09 05:03:53;;;;;;;10.68;3.08;;;11.60;99.90;;;;;;6172344;23;20016;-92
2022/11/09 05:06:31;;;;;;;10.57;3.20;;;11.50;99.90;;;;;;6173477;23;20299;-91
2022/11/09 05:09:06;;;;;;;12.48;3.33;;;11.50;99.90;;;;;;6173735;23;20612;-93
2022/11/09 05:11:33;;;;;;;10.00;2.90;;;11.60;99.90;;;;;;6172445;23;20402;-93
2022/11/09 05:14:00;;;;;;;9.93;3.05;;;11.60;99.90;;;;;;6173741;23;20024;-91
2022/11/09 05:16:27;;;;;;;7.45;2.50;;;11.60;99.90;;;;;;6174038;23;20008;-93
2022/11/09 05:18:52;;;;;;;8.30;2.85;;;11.70;99.90;;;;;;6174458;23;20016;-91
2022/11/09 05:21:18;;;;;;;9.88;2.63;;;11.60;99.90;;;;;;6174723;23;20069;-93
2022/11/09 05:23:59;;;;;;;8.52;2.75;;;11.70;99.90;;;;;;6174523;23;20020;-93
2022/11/09 05:26:31;;;;;;;11.98;3.05;;;11.60;99.90;;;;;;6174679;23;20020;-93
2022/11/09 05:28:58;;;;;;;15.52;3.40;;;11.60;99.90;;;;;;6174507;23;20076;-93
2022/11/09 05:31:24;;;;;;;8.55;2.65;;;11.60;99.90;;;;;;6174220;23;20008;-91
2022/11/09 05:33:51;;;;;;;8.48;2.40;;;11.70;99.90;;;;;;6173547;23;20570;-90
2022/11/09 05:36:20;;;;;;;7.35;2.58;;;11.70;99.90;;;;;;6174558;23;20433;-93
2022/11/09 05:38:47;;;;;;;13.13;2.63;;;11.60;99.90;;;;;;6172756;23;20044;-91
2022/11/09 05:41:13;;;;;;;8.75;2.65;;;11.60;99.90;;;;;;6173217;23;20161;-94
2022/11/09 05:43:38;;;;;;;11.07;2.80;;;11.60;99.90;;;;;;6174085;23;20466;-94
2022/11/09 05:46:04;;;;;;;9.25;2.65;;;11.70;99.90;;;;;;6173641;23;20107;-93
2022/11/09 05:48:30;;;;;;;12.38;3.22;;;11.70;99.90;;;;;;6171862;23;20016;-93
2022/11/09 05:50:59;;;;;;;9.55;3.08;;;11.60;99.90;;;;;;6174838;23;20021;-91
2022/11/09 05:53:25;;;;;;;8.43;3.53;;;11.50;99.90;;;;;;6173532;23;20029;-91
2022/11/09 05:55:51;;;;;;;11.70;2.92;;;11.50;99.90;;;;;;6173262;23;20135;-92
2022/11/09 05:58:16;;;;;;;10.30;2.97;;;11.50;99.90;;;;;;6174865;23;20032;-93
2022/11/09 06:00:42;;;;;;;6.88;2.38;;;11.60;99.90;;;;;;6174332;23;20023;-92
2022/11/09 06:03:09;;;;;;;10.93;3.03;;;11.50;99.90;;;;;;6172550;23;20013;-92
2022/11/09 06:05:37;;;;;;;8.30;2.92;;;11.50;99.90;;;;;;6174068;23;20031;-93
2022/11/09 06:08:04;;;;;;;8.10;2.70;;;11.50;99.90;;;;;;6173763;23;20052;-92
2022/11/09 06:10:30;;;;;;;8.65;2.80;;;11.50;99.90;;;;;;6174281;23;20524;-92
2022/11/09 06:12:56;;;;;;;6.40;2.20;;;11.40;99.90;;;;;;6173411;23;20013;-94
2022/11/09 06:15:22;;;;;;;8.32;2.85;;;11.50;99.90;;;;;;6199900;23;20044;-93
2022/11/09 06:17:57;;;;;;;9.63;3.15;;;11.50;99.90;;;;;;6172223;23;20481;-92
2022/11/09 06:20:25;;;;;;;13.15;2.80;;;11.30;99.90;;;;;;6174162;23;20012;-93
2022/11/09 06:22:59;;;;;;;10.80;3.17;;;11.40;99.90;;;;;;6173481;23;20377;-93
2022/11/09 06:25:26;;;;;;;8.47;2.80;;;11.40;99.90;;;;;;6174483;23;20025;-91
2022/11/09 06:27:56;;;;;;;7.75;2.45;;;11.40;99.90;;;;;;6174611;23;20024;-91
2022/11/09 06:30:22;;;;;;;7.80;2.42;;;11.40;99.90;;;;;;6174525;23;20033;-92
2022/11/09 06:32:48;;;;;;;6.88;2.58;;;11.30;99.90;;;;;;6172238;23;20020;-91
2022/11/09 06:35:14;;;;;;;11.75;2.58;;;11.30;99.90;;;;;;6199576;23;20531;-93
2022/11/09 06:37:40;;;;;;;10.23;2.33;;;11.30;99.90;;;;;;6173407;23;20016;-94
2022/11/09 06:40:09;;;;;;;11.77;2.78;;;11.20;99.90;;;;;;6173655;23;20125;-92
2022/11/09 06:42:35;;;;;;;7.55;2.72;;;11.30;99.90;;;;;;6198838;23;20019;-91
2022/11/09 06:45:00;;;;;;;8.15;2.28;;;11.30;99.90;;;;;;6198371;23;20411;-93
2022/11/09 06:47:27;;;;;;;9.95;2.85;;;11.40;99.90;;;;;;6172051;23;20013;-93
2022/11/09 06:49:53;;;;;;;12.20;2.85;;;11.40;99.90;;;;;;6173763;23;20024;-92
2022/11/09 06:52:18;;;;;;;5.22;2.42;;;11.40;99.90;;;;;;6171690;23;20351;-91
2022/11/09 06:54:44;;;;;;;11.27;3.08;;;11.30;99.90;;;;;;6174643;23;20039;-93
2022/11/09 06:57:10;;;;;;;8.50;2.45;;;11.40;99.90;;;;;;6172549;23;20230;-93
2022/11/09 06:59:36;;;;;;;11.50;2.50;;;11.40;99.90;;;;;;6173004;23;20069;-93
2022/11/09 07:02:01;;;;;;;7.78;2.33;;;11.40;99.90;;;;;;6195565;23;20023;-88
2022/11/09 07:04:27;;;;;;;8.20;2.30;;;11.40;99.90;;;;;;6196464;23;20013;-88
2022/11/09 07:06:53;;;;;;;8.55;2.60;;;11.40;99.90;;;;;;6195685;23;20063;-89
2022/11/09 07:09:18;;;;;;;9.45;2.33;;;11.40;99.90;;;;;;6197565;23;20048;-87
2022/11/09 07:11:44;;;;;;;7.40;2.15;;;11.40;99.90;;;;;;6170923;23;20452;-90
2022/11/09 07:14:12;;;;;;;8.95;2.90;;;11.40;99.90;;;;;;6197815;23;20058;-88
2022/11/09 07:16:38;;;;;;;6.88;2.53;;;11.40;99.90;;;;;;6169290;23;20020;-87
2022/11/09 07:19:03;;;;;;;7.00;2.10;;;11.30;99.90;;;;;;6195728;23;20048;-89
2022/11/09 07:21:29;;;;;;;9.15;2.28;;;11.30;99.90;;;;;;6172459;23;20067;-88
2022/11/09 07:23:55;;;;;;;13.75;2.80;;;11.40;99.90;;;;;;6197221;23;20326;-88
2022/11/09 07:26:20;;;;;;;9.15;2.47;;;11.30;99.90;;;;;;6171473;23;20028;-88
2022/11/09 07:28:46;;;;;;;8.00;2.53;;;11.20;99.90;;;;;;6170945;23;20017;-88
2022/11/09 07:31:11;;;;;;;9.63;2.67;;;11.30;99.90;;;;;;6170841;23;20547;-87
2022/11/09 07:33:37;;;;;;;9.10;2.22;;;11.30;99.90;;;;;;6170083;23;20009;-88
2022/11/09 07:36:04;;;;;;;8.13;2.10;;;11.40;99.90;;;;;;6170368;23;20279;-89
2022/11/09 07:38:30;;;;;;;10.50;2.13;;;11.40;99.90;;;;;;6170325;23;20105;-89
2022/11/09 07:41:00;;;;;;;12.63;2.13;;;11.40;99.90;;;;;;6170544;23;20299;-90
2022/11/09 07:43:27;;;;;;;7.40;2.22;;;11.50;99.90;;;;;;6171745;23;20138;-90
2022/11/09 07:45:53;;;;;;;8.02;2.10;;;11.40;99.90;;;;;;6170652;23;20013;-88
2022/11/09 07:48:22;;;;;;;10.52;2.13;;;11.40;99.90;;;;;;6169422;22;20017;-88
2022/11/09 07:50:48;;;;;;;12.18;2.20;;;11.50;99.90;;;;;;6171973;23;20023;-88
2022/11/09 07:53:15;;;;;;;9.95;2.70;;;11.50;99.90;;;;;;6169693;23;20055;-87
2022/11/09 07:55:41;;;;;;;8.23;2.28;;;11.60;99.90;;;;;;6170646;23;20230;-89
2022/11/09 07:58:10;;;;;;;9.82;2.40;;;11.60;99.90;;;;;;6170175;23;20183;-87
2022/11/09 08:00:38;;;;;;;9.57;2.40;;;11.70;99.90;;;;;;6171169;22;20016;-86
2022/11/09 08:03:04;;;;;;;8.35;2.67;;;11.70;99.90;;;;;;6167868;22;20020;-89
2022/11/09 08:05:30;;;;;;;9.75;2.03;;;11.70;99.90;;;;;;6170883;23;20027;-88
2022/11/09 08:07:58;;;;;;;7.95;2.40;;;11.70;99.90;;;;;;6170030;23;20016;-88
2022/11/09 08:10:25;;;;;;;10.73;2.30;;;11.80;99.90;;;;;;6170367;23;20039;-87
2022/11/09 08:12:59;;;;;;;8.82;3.00;;;11.80;99.90;;;;;;6170396;23;20490;-88
2022/11/09 08:15:26;;;;;;;7.88;3.08;;;11.90;99.90;;;;;;6171159;23;20091;-88
2022/11/09 08:17:52;;;;;;;8.48;2.60;;;11.80;99.90;;;;;;6168098;23;20453;-89
2022/11/09 08:20:18;;;;;;;9.10;2.30;;;11.90;99.90;;;;;;6196576;23;20345;-89
2022/11/09 08:22:45;;;;;;;11.95;3.05;;;11.90;99.90;;;;;;6194499;23;20016;-89
2022/11/09 08:25:12;;;;;;;12.35;2.97;;;12.00;99.90;;;;;;6171411;23;20541;-89
2022/11/09 08:27:41;;;;;;;8.75;2.58;;;12.00;99.90;;;;;;6194539;23;20047;-89
2022/11/09 08:30:11;;;;;;;11.73;3.00;;;12.00;99.90;;;;;;6170683;23;20020;-89
2022/11/09 08:32:37;;;;;;;9.43;2.50;;;12.10;99.90;;;;;;6167243;23;20016;-90
2022/11/09 08:35:04;;;;;;;13.73;2.67;;;12.10;99.90;;;;;;6170554;23;20009;-89
2022/11/09 08:37:29;;;;;;;9.27;2.05;;;12.20;99.90;;;;;;6169261;23;20009;-87
2022/11/09 08:39:55;;;;;;;10.88;2.97;;;12.20;99.90;;;;;;6171162;23;20069;-88
2022/11/09 08:42:20;;;;;;;12.48;2.58;;;12.30;99.90;;;;;;6169930;23;20420;-87
2022/11/09 08:44:46;;;;;;;9.35;2.28;;;12.30;99.90;;;;;;6169644;23;20458;-89
2022/11/09 08:47:12;;;;;;;9.38;2.72;;;12.40;99.90;;;;;;6192196;23;20141;-88
2022/11/09 08:49:42;;;;;;;10.63;2.63;;;12.40;99.90;;;;;;6169116;23;20310;-87
2022/11/09 08:52:08;;;;;;;8.05;2.33;;;12.50;99.90;;;;;;6194654;23;20021;-88
2022/11/09 08:54:35;;;;;;;9.48;2.30;;;12.50;99.90;;;;;;6171190;23;20039;-86
2022/11/09 08:57:01;;;;;;;12.77;2.53;;;12.50;99.90;;;;;;6169679;23;20349;-88
2022/11/09 08:59:27;;;;;;;8.77;2.33;;;12.60;99.90;;;;;;6169866;23;20008;-88
2022/11/09 09:01:52;;;;;;;11.48;3.28;;;12.50;99.90;;;;;;6167765;23;20509;-87
2022/11/09 09:04:20;;;;;;;9.75;2.47;;;12.60;99.90;;;;;;6194416;23;20071;-88
2022/11/09 09:06:46;;;;;;;12.30;2.92;;;12.60;99.90;;;;;;6195127;23;20500;-88
2022/11/09 09:09:12;;;;;;;12.65;3.78;;;12.70;99.90;;;;;;6195079;23;20149;-88
2022/11/09 09:11:37;;;;;;;11.07;2.78;;;12.70;99.90;;;;;;6169699;23;20047;-88
2022/11/09 09:14:03;;;;;;;10.07;2.83;;;12.80;99.90;;;;;;6193963;23;20472;-88
2022/11/09 09:16:29;;;;;;;9.73;2.72;;;12.90;99.90;;;;;;6168920;23;20017;-88
2022/11/09 09:18:59;;;;;;;11.23;3.25;;;12.90;99.90;;;;;;6169541;23;20021;-87
2022/11/09 09:21:24;;;;;;;10.38;2.63;;;13.00;99.90;;;;;;6168778;23;20065;-86
2022/11/09 09:23:50;;;;;;;8.02;2.38;;;12.90;99.90;;;;;;6168040;23;20411;-87
2022/11/09 09:26:16;;;;;;;11.20;3.90;;;13.00;99.90;;;;;;6168177;23;20016;-88
2022/11/09 09:28:42;;;;;;;10.93;2.92;;;13.00;99.90;;;;;;6168160;22;20016;-89
2022/11/09 09:31:08;;;;;;;10.77;3.35;;;13.00;99.90;;;;;;6168017;23;20016;-88
2022/11/09 09:33:34;;;;;;;9.50;2.67;;;13.00;99.90;;;;;;6191795;23;20028;-87
2022/11/09 09:36:00;;;;;;;7.43;3.25;;;13.10;99.90;;;;;;6193015;23;20017;-86
2022/11/09 09:38:27;;;;;;;8.25;2.45;;;13.20;99.90;;;;;;6168649;23;20028;-88
2022/11/09 09:41:01;;;;;;;8.60;3.10;;;13.30;99.90;;;;;;6168885;23;20441;-86
2022/11/09 09:43:35;;;;;;;10.98;3.00;;;13.30;99.90;;;;;;6169467;23;20453;-87
2022/11/09 09:46:03;;;;;;;10.25;2.80;;;13.40;99.90;;;;;;6167845;23;20065;-86
2022/11/09 09:48:44;;;;;;;7.10;3.08;;;13.40;99.90;;;;;;6166621;23;20017;-88
2022/11/09 09:51:26;;;;;;;12.55;3.22;;;13.40;99.90;;;;;;6168503;23;20103;-87
2022/11/09 09:53:58;;;;;;;11.65;3.28;;;13.50;99.90;;;;;;6167831;22;20017;-86
2022/11/09 09:56:29;;;;;;;9.63;3.40;;;13.60;99.90;;;;;;6169318;23;20017;-87
2022/11/09 09:59:10;;;;;;;9.93;3.33;;;13.60;99.90;;;;;;6172276;23;20066;-93
2022/11/09 10:01:38;;;;;;;11.43;3.83;;;13.60;99.90;;;;;;6304182;22;20008;-93
2022/11/09 10:04:36;;;;;;;7.88;3.28;;;13.60;99.90;;;;;;6173322;23;20150;-94
2022/11/09 10:07:40;;;;;;;10.20;3.17;;;13.60;99.90;;;;;;6198336;23;20123;-92
2022/11/09 10:10:29;;;;;;;12.32;3.28;;;13.70;99.90;;;;;;6181065;23;20012;-92
2022/11/09 10:13:17;;;;;;;11.60;3.63;;;13.70;99.90;;;;;;6172631;23;20327;-93
2022/11/09 10:15:48;;;;;;;8.00;3.03;;;13.70;99.90;;;;;;6305463;22;20468;-94
2022/11/09 10:19:02;;;;;;;7.80;3.08;;;13.90;99.90;;;;;;6170918;23;20017;-92
2022/11/09 10:21:31;;;;;;;11.38;3.40;;;14.10;99.90;;;;;;6197095;23;20039;-92
2022/11/09 10:24:00;;;;;;;16.10;3.90;;;14.10;99.90;;;;;;6197475;22;20091;-93
2022/11/09 10:26:44;;;;;;;8.70;3.97;;;14.20;99.90;;;;;;6197207;23;20047;-93
2022/11/09 10:29:23;;;;;;;12.77;3.55;;;14.30;99.90;;;;;;6173829;23;20712;-93
2022/11/09 10:32:01;;;;;;;10.70;3.95;;;14.40;99.90;;;;;;6171573;23;20034;-92
2022/11/09 10:34:42;;;;;;;8.43;3.28;;;14.40;99.90;;;;;;6172419;23;20044;-92
2022/11/09 10:37:23;;;;;;;8.27;3.03;;;14.50;99.90;;;;;;6172602;23;20055;-93
2022/11/09 10:40:03;;;;;;;10.13;3.63;;;14.50;99.90;;;;;;6172414;22;20005;-93
2022/11/09 10:42:29;;;;;;;11.98;3.72;;;14.40;99.90;;;;;;6173271;23;20009;-93
2022/11/09 10:44:55;;;;;;;19.25;4.60;;;14.50;99.90;;;;;;6173445;23;20528;-92
2022/11/09 10:47:21;;;;;;;8.10;3.47;;;14.40;99.90;;;;;;6171472;23;20021;-93
2022/11/09 10:50:19;;;;;;;10.18;3.22;;;14.30;99.90;;;;;;6173535;23;20116;-93
2022/11/09 10:52:44;;;;;;;11.63;3.70;;;14.40;99.90;;;;;;6172148;23;20050;-92
2022/11/09 10:55:23;;;;;;;12.55;3.80;;;14.30;99.90;;;;;;6144028;23;20090;-91
2022/11/09 10:57:59;;;;;;;13.60;3.65;;;14.30;99.90;;;;;;6119598;23;20013;-92
2022/11/09 11:00:26;;;;;;;8.50;3.20;;;14.30;99.90;;;;;;6144210;23;20042;-92
2022/11/09 11:02:53;;;;;;;11.20;3.45;;;14.30;99.90;;;;;;6116597;23;20421;-93
2022/11/09 11:05:26;;;;;;;10.73;3.22;;;14.30;99.90;;;;;;6119225;22;20032;-94
2022/11/09 11:07:51;;;;;;;14.20;4.15;;;14.30;99.90;;;;;;6142868;23;20031;-93
2022/11/09 11:10:21;;;;;;;11.82;3.90;;;14.20;99.90;;;;;;6118882;23;20017;-93
2022/11/09 11:12:58;;;;;;;12.23;3.75;;;14.30;99.90;;;;;;6118622;23;20021;-93
2022/11/09 11:15:31;;;;;;;10.65;3.20;;;14.30;99.90;;;;;;6119082;23;20040;-92
2022/11/09 11:18:02;;;;;;;9.02;3.58;;;14.40;99.90;;;;;;6140704;23;20093;-92
2022/11/09 11:20:28;;;;;;;9.90;3.38;;;14.40;99.90;;;;;;6118827;23;20020;-93
2022/11/09 11:23:12;;;;;;;5.50;2.60;;;14.40;99.90;;;;;;6143373;23;20016;-93
2022/11/09 11:26:01;;;;;;;6.68;2.90;;;14.30;99.90;;;;;;6117825;23;20047;-92
2022/11/09 11:28:46;;;;;;;10.10;3.55;;;14.30;99.90;;;;;;6143572;23;20066;-94
2022/11/09 11:31:17;;;;;;;10.88;3.58;;;14.30;99.90;;;;;;6118129;23;20314;-93
2022/11/09 11:33:42;;;;;;;8.70;3.00;;;14.20;99.90;;;;;;6117650;23;20021;-93
2022/11/09 11:36:40;;;;;;;11.05;3.22;;;14.20;99.90;;;;;;6119228;23;20032;-93
2022/11/09 11:39:18;;;;;;;10.30;3.15;;;14.20;99.90;;;;;;6118290;23;20017;-94
2022/11/09 11:42:22;;;;;;;10.05;3.40;;;14.20;99.90;;;;;;6139314;23;20418;-87
2022/11/09 11:45:13;;;;;;;9.75;3.10;;;14.30;99.90;;;;;;6115298;23;20020;-86
2022/11/09 11:47:50;;;;;;;9.68;3.42;;;14.30;99.90;;;;;;6112929;23;20426;-86
2022/11/09 11:50:25;;;;;;;11.10;3.08;;;14.30;99.90;;;;;;6114391;23;20091;-87
2022/11/09 11:52:57;;;;;;;10.65;3.40;;;14.10;35.10;;;;;;6139162;23;20383;-86
2022/11/09 11:55:57;;;;;;;5.80;2.55;;;14.30;99.90;;;;;;6169508;22;20484;-86
2022/11/09 11:58:58;;;;;;;9.68;3.45;;;14.50;1.00;;;;;;6143633;23;20020;-85
2022/11/09 12:01:46;;;;;;;8.40;3.17;;;14.50;1.00;;;;;;6143442;23;20016;-86
2022/11/09 12:04:29;;;;;;;9.20;3.40;;;14.50;1.00;;;;;;6143516;23;20077;-87
2022/11/09 12:07:07;;;;;;;11.70;2.97;;;14.40;65.40;;;;;;6144038;23;20166;-85
2022/11/09 12:09:51;;;;;;;11.88;3.78;;;14.20;1.00;;;;;;6144370;23;20012;-87
2022/11/09 12:12:47;;;;;;;9.93;3.43;;;14.00;99.90;;;;;;6144278;23;20009;-86
2022/11/09 12:15:15;;;;;;;10.45;3.50;;;13.90;1.00;;;;;;6184974;23;20286;-86
2022/11/09 12:18:33;;;;;;;13.30;3.42;;;13.90;99.90;;;;;;6142400;23;20485;-86
2022/11/09 12:21:13;;;;;;;9.93;3.78;;;14.00;99.90;;;;;;6095173;23;20073;-87
2022/11/09 12:23:59;;;;;;;9.57;3.10;;;13.80;99.90;;;;;;6143150;23;20459;-85
2022/11/09 12:26:33;;;;;;;;;;;13.80;99.90;;;;;;6145088;23;20472;-87
2022/11/09 12:29:26;;;;;;;9.02;3.15;;;13.80;99.90;;;;;;6144879;22;19911;-87
2022/11/09 12:32:10;;;;;;;13.77;3.45;;;13.90;99.90;;;;;;6143097;23;20062;-87
2022/11/09 12:34:43;;;;;;;8.82;3.05;;;13.80;99.90;;;;;;6144985;23;20016;-87
2022/11/09 12:37:26;;;;;;;16.55;4.03;;;13.90;99.90;;;;;;6169262;22;20472;-87
2022/11/09 12:39:53;;;;;;;10.00;3.00;;;14.10;99.90;;;;;;6169707;22;20577;-87
2022/11/09 12:42:40;;;;;;;11.05;2.90;;;14.40;99.90;;;;;;6145146;23;20019;-86
2022/11/09 12:45:34;;;;;;;7.28;2.53;;;14.50;94.70;;;;;;6144804;23;20221;-86
2022/11/09 12:48:18;;;;;;;13.23;3.42;;;14.40;62.30;;;;;;6142165;22;20012;-87
2022/11/09 12:50:44;;;;;;;6.85;2.80;;;14.30;1.00;;;;;;6146292;23;20023;-86
2022/11/09 12:53:10;;;;;;;11.88;2.85;;;14.20;83.10;;;;;;6143832;23;20016;-86
2022/11/09 12:55:57;;;;;;;8.90;3.33;;;14.10;99.90;;;;;;6169366;23;20197;-88
2022/11/09 12:58:29;;;;;;;6.97;2.67;;;13.90;13.20;;;;;;6169568;23;20017;-87